CCA1515 ZBAA-ZSSS
Flight info
| Callsign | CCA1515 |
|---|---|
| Flight time | N/A |
| Altitude | 41100 |
| Route | ELKUR7X ELKUR W40 YQG/K0898S1220 W142 DALIM/K0896S1250 A593 DPX A470 DALNU W166 ZJ W167 SASAN R343 PK |
| Aircraft | A359/H-SDE2E3GHIJ3J4J5LM1ORWXY/LB1D1 |
Departure
| Time | N/A |
|---|---|
| Airport | Beijing Capital International Airport (ZBAA) |
Arrival
| Time | 2026-05-07 07:56 |
|---|---|
| Airport | Shanghai Hongqiao International Airport (ZSSS) |
| Time | Latitude | Longitude | Altitude | Speed | Heading |
|---|---|---|---|---|---|
| 2026-05-07 06:35 | 39.58009 | 116.68095 | 26126 ft | 458 kts | 187° |
| 2026-05-07 06:36 | 39.54810 | 116.68040 | 26725 ft | 461 kts | 188° |
| 2026-05-07 06:36 | 39.51586 | 116.67983 | 27307 ft | 464 kts | 188° |
| 2026-05-07 06:36 | 39.48343 | 116.67927 | 27903 ft | 466 kts | 188° |
| 2026-05-07 06:36 | 39.45121 | 116.67871 | 28483 ft | 469 kts | 189° |
| 2026-05-07 06:37 | 39.41838 | 116.67815 | 28993 ft | 472 kts | 189° |
| 2026-05-07 06:37 | 39.38546 | 116.67760 | 29633 ft | 472 kts | 190° |
| 2026-05-07 06:37 | 39.35258 | 116.67704 | 30190 ft | 474 kts | 190° |
| 2026-05-07 06:37 | 39.31973 | 116.67646 | 30560 ft | 478 kts | 190° |
| 2026-05-07 06:38 | 39.28626 | 116.67586 | 30887 ft | 483 kts | 190° |
| 2026-05-07 06:38 | 39.25240 | 116.67527 | 31224 ft | 487 kts | 190° |
| 2026-05-07 06:38 | 39.21841 | 116.67469 | 31516 ft | 490 kts | 190° |
| 2026-05-07 06:38 | 39.18416 | 116.67413 | 31917 ft | 492 kts | 191° |
| 2026-05-07 06:39 | 39.15022 | 116.67356 | 32244 ft | 494 kts | 191° |
| 2026-05-07 06:39 | 39.11563 | 116.67296 | 32531 ft | 498 kts | 191° |
| 2026-05-07 06:39 | 39.08081 | 116.67236 | 32828 ft | 501 kts | 191° |
| 2026-05-07 06:39 | 39.04586 | 116.67178 | 33182 ft | 502 kts | 190° |
| 2026-05-07 06:40 | 39.01093 | 116.67122 | 33546 ft | 502 kts | 191° |
| 2026-05-07 06:40 | 38.97597 | 116.67066 | 34037 ft | 500 kts | 191° |
| 2026-05-07 06:40 | 38.94117 | 116.67009 | 34416 ft | 499 kts | 191° |
| 2026-05-07 06:40 | 38.90637 | 116.66950 | 34773 ft | 499 kts | 191° |
| 2026-05-07 06:41 | 38.87156 | 116.66892 | 35121 ft | 498 kts | 191° |
| 2026-05-07 06:41 | 38.83695 | 116.66833 | 35457 ft | 498 kts | 191° |
| 2026-05-07 06:41 | 38.80264 | 116.66776 | 35738 ft | 497 kts | 191° |
| 2026-05-07 06:41 | 38.76811 | 116.66720 | 36177 ft | 494 kts | 191° |
| 2026-05-07 06:42 | 38.73374 | 116.66663 | 36540 ft | 493 kts | 191° |
| 2026-05-07 06:42 | 38.69943 | 116.66604 | 36830 ft | 493 kts | 191° |
| 2026-05-07 06:42 | 38.66509 | 116.66545 | 37116 ft | 493 kts | 191° |
| 2026-05-07 06:42 | 38.63080 | 116.66487 | 37414 ft | 492 kts | 191° |
| 2026-05-07 06:43 | 38.59721 | 116.66294 | 37667 ft | 487 kts | 195° |
| 2026-05-07 06:43 | 38.56352 | 116.65910 | 38006 ft | 482 kts | 197° |
| 2026-05-07 06:43 | 38.53013 | 116.65452 | 38332 ft | 480 kts | 197° |
| 2026-05-07 06:43 | 38.49724 | 116.64990 | 38592 ft | 480 kts | 197° |
| 2026-05-07 06:44 | 38.46381 | 116.64538 | 38831 ft | 481 kts | 197° |
| 2026-05-07 06:44 | 38.43036 | 116.64111 | 39024 ft | 482 kts | 196° |
| 2026-05-07 06:44 | 38.39693 | 116.63707 | 39175 ft | 482 kts | 196° |
| 2026-05-07 06:44 | 38.36391 | 116.63323 | 39370 ft | 482 kts | 197° |
| 2026-05-07 06:45 | 38.33037 | 116.62969 | 39574 ft | 485 kts | 194° |
| 2026-05-07 06:45 | 38.29608 | 116.63007 | 39756 ft | 497 kts | 186° |
| 2026-05-07 06:45 | 38.26139 | 116.63676 | 39932 ft | 511 kts | 177° |
| 2026-05-07 06:45 | 38.22713 | 116.64763 | 40121 ft | 515 kts | 175° |
| 2026-05-07 06:46 | 38.19263 | 116.66003 | 40292 ft | 516 kts | 174° |
| 2026-05-07 06:46 | 38.15814 | 116.67310 | 40415 ft | 518 kts | 174° |
| 2026-05-07 06:46 | 38.12347 | 116.68642 | 40543 ft | 518 kts | 174° |
| 2026-05-07 06:46 | 38.08932 | 116.69955 | 40745 ft | 518 kts | 174° |
| 2026-05-07 06:47 | 38.05476 | 116.71292 | 40913 ft | 517 kts | 173° |
| 2026-05-07 06:47 | 38.02032 | 116.72625 | 41086 ft | 517 kts | 174° |
| 2026-05-07 06:47 | 37.98579 | 116.73955 | 41202 ft | 517 kts | 174° |
| 2026-05-07 06:47 | 37.95133 | 116.75274 | 41224 ft | 517 kts | 174° |
| 2026-05-07 06:48 | 37.88271 | 116.77887 | 41227 ft | 516 kts | 174° |
| 2026-05-07 06:48 | 37.81426 | 116.80480 | 41229 ft | 516 kts | 174° |
| 2026-05-07 06:49 | 37.75694 | 116.82648 | 41226 ft | 516 kts | 174° |
| 2026-05-07 06:49 | 37.68808 | 116.85249 | 41209 ft | 516 kts | 174° |
| 2026-05-07 06:50 | 37.61940 | 116.87838 | 41220 ft | 516 kts | 174° |
| 2026-05-07 06:50 | 37.55051 | 116.90431 | 41223 ft | 515 kts | 174° |
| 2026-05-07 06:51 | 37.48164 | 116.93017 | 41222 ft | 515 kts | 174° |
| 2026-05-07 06:51 | 37.41318 | 116.95583 | 41220 ft | 515 kts | 174° |
| 2026-05-07 06:52 | 37.34436 | 116.98158 | 41221 ft | 515 kts | 174° |
| 2026-05-07 06:52 | 37.27598 | 117.00735 | 41215 ft | 517 kts | 173° |
| 2026-05-07 06:53 | 37.20775 | 117.03860 | 41208 ft | 524 kts | 169° |
| 2026-05-07 06:53 | 37.13973 | 117.07199 | 41214 ft | 524 kts | 169° |
| 2026-05-07 06:54 | 37.07179 | 117.10453 | 41210 ft | 524 kts | 170° |
| 2026-05-07 06:54 | 37.00360 | 117.13646 | 41205 ft | 523 kts | 170° |
| 2026-05-07 06:55 | 36.93523 | 117.16818 | 41205 ft | 525 kts | 170° |
| 2026-05-07 06:55 | 36.86653 | 117.19963 | 41198 ft | 522 kts | 173° |
| 2026-05-07 06:56 | 36.83190 | 117.21057 | 41203 ft | 507 kts | 182° |
| 2026-05-07 06:56 | 36.79726 | 117.21503 | 41205 ft | 493 kts | 189° |
| 2026-05-07 06:56 | 36.72949 | 117.21645 | 41186 ft | 488 kts | 192° |
| 2026-05-07 06:57 | 36.66140 | 117.21547 | 41192 ft | 488 kts | 192° |
| 2026-05-07 06:57 | 36.59364 | 117.21446 | 41202 ft | 489 kts | 192° |
| 2026-05-07 06:58 | 36.52555 | 117.21379 | 41173 ft | 488 kts | 192° |
| 2026-05-07 06:58 | 36.45756 | 117.21332 | 41201 ft | 488 kts | 192° |
| 2026-05-07 06:59 | 36.42326 | 117.21581 | 41193 ft | 500 kts | 183° |
| 2026-05-07 06:59 | 36.38867 | 117.22425 | 41181 ft | 511 kts | 176° |
| 2026-05-07 06:59 | 36.31991 | 117.24809 | 41186 ft | 517 kts | 174° |
| 2026-05-07 07:00 | 36.25146 | 117.27420 | 41186 ft | 515 kts | 173° |
| 2026-05-07 07:00 | 36.18313 | 117.30018 | 41183 ft | 512 kts | 173° |
| 2026-05-07 07:01 | 36.11502 | 117.32556 | 41179 ft | 512 kts | 174° |
| 2026-05-07 07:01 | 36.04669 | 117.35078 | 41158 ft | 511 kts | 174° |
| 2026-05-07 07:02 | 35.97853 | 117.37595 | 41174 ft | 510 kts | 174° |
| 2026-05-07 07:02 | 35.91092 | 117.40122 | 41171 ft | 510 kts | 173° |
| 2026-05-07 07:03 | 35.84290 | 117.42673 | 41171 ft | 510 kts | 173° |
| 2026-05-07 07:03 | 35.77528 | 117.45201 | 41165 ft | 510 kts | 173° |
| 2026-05-07 07:04 | 35.70726 | 117.47737 | 41154 ft | 510 kts | 173° |
| 2026-05-07 07:04 | 35.63963 | 117.50254 | 41159 ft | 509 kts | 173° |
| 2026-05-07 07:05 | 35.57176 | 117.52775 | 41154 ft | 509 kts | 173° |
| 2026-05-07 07:05 | 35.50398 | 117.55285 | 41155 ft | 509 kts | 173° |
| 2026-05-07 07:06 | 35.43606 | 117.57798 | 41159 ft | 509 kts | 173° |
| 2026-05-07 07:06 | 35.36854 | 117.60293 | 41152 ft | 509 kts | 173° |
| 2026-05-07 07:07 | 35.30061 | 117.62797 | 41141 ft | 509 kts | 173° |
| 2026-05-07 07:07 | 35.23317 | 117.65280 | 41147 ft | 508 kts | 173° |
| 2026-05-07 07:08 | 35.16535 | 117.67771 | 41144 ft | 508 kts | 173° |
| 2026-05-07 07:08 | 35.09761 | 117.70259 | 41139 ft | 508 kts | 173° |
| 2026-05-07 07:09 | 35.02979 | 117.72750 | 41131 ft | 508 kts | 173° |
| 2026-05-07 07:09 | 34.96240 | 117.75216 | 41131 ft | 507 kts | 173° |
| 2026-05-07 07:10 | 34.89495 | 117.77678 | 41125 ft | 507 kts | 173° |
| 2026-05-07 07:10 | 34.82726 | 117.80150 | 41078 ft | 507 kts | 173° |
| 2026-05-07 07:11 | 34.75957 | 117.82629 | 41128 ft | 507 kts | 173° |
| 2026-05-07 07:11 | 34.69189 | 117.85052 | 41121 ft | 507 kts | 173° |
| 2026-05-07 07:12 | 34.62419 | 117.87471 | 41124 ft | 507 kts | 173° |
| 2026-05-07 07:12 | 34.55683 | 117.89882 | 41111 ft | 507 kts | 173° |
| 2026-05-07 07:13 | 34.48904 | 117.92310 | 41132 ft | 507 kts | 173° |
| 2026-05-07 07:13 | 34.42114 | 117.94738 | 41130 ft | 507 kts | 173° |
| 2026-05-07 07:14 | 34.35374 | 117.97144 | 41121 ft | 507 kts | 173° |
| 2026-05-07 07:14 | 34.28586 | 117.99562 | 41120 ft | 508 kts | 173° |
| 2026-05-07 07:15 | 34.21837 | 118.01997 | 41123 ft | 508 kts | 172° |
| 2026-05-07 07:15 | 34.15053 | 118.04476 | 41123 ft | 508 kts | 172° |
| 2026-05-07 07:16 | 34.08312 | 118.06935 | 41119 ft | 508 kts | 172° |
| 2026-05-07 07:16 | 34.01509 | 118.09404 | 41126 ft | 510 kts | 172° |
| 2026-05-07 07:17 | 33.94728 | 118.11866 | 41126 ft | 511 kts | 172° |
| 2026-05-07 07:17 | 33.87904 | 118.14353 | 41126 ft | 511 kts | 172° |
| 2026-05-07 07:18 | 33.81156 | 118.17284 | 41102 ft | 525 kts | 161° |
| 2026-05-07 07:18 | 33.74876 | 118.21957 | 41134 ft | 533 kts | 153° |
| 2026-05-07 07:19 | 33.68800 | 118.27015 | 41135 ft | 535 kts | 152° |
| 2026-05-07 07:19 | 33.62712 | 118.32150 | 40961 ft | 531 kts | 152° |
| 2026-05-07 07:20 | 33.59681 | 118.34693 | 40424 ft | 528 kts | 152° |
| 2026-05-07 07:20 | 33.56671 | 118.37201 | 39834 ft | 526 kts | 152° |
| 2026-05-07 07:20 | 33.53661 | 118.39699 | 39379 ft | 522 kts | 152° |
| 2026-05-07 07:20 | 33.50690 | 118.42159 | 38919 ft | 517 kts | 152° |
| 2026-05-07 07:21 | 33.47737 | 118.44598 | 38312 ft | 514 kts | 152° |
| 2026-05-07 07:21 | 33.44813 | 118.47008 | 37561 ft | 515 kts | 152° |
| 2026-05-07 07:21 | 33.41845 | 118.49450 | 36770 ft | 516 kts | 152° |
| 2026-05-07 07:21 | 33.38865 | 118.51900 | 35990 ft | 518 kts | 151° |
| 2026-05-07 07:22 | 33.35921 | 118.54319 | 35231 ft | 519 kts | 151° |
| 2026-05-07 07:22 | 33.32937 | 118.56773 | 34470 ft | 520 kts | 150° |
| 2026-05-07 07:22 | 33.29946 | 118.59231 | 33746 ft | 522 kts | 150° |
| 2026-05-07 07:22 | 33.26927 | 118.61710 | 33262 ft | 527 kts | 150° |
| 2026-05-07 07:23 | 33.23893 | 118.64199 | 33140 ft | 530 kts | 150° |
| 2026-05-07 07:23 | 33.20885 | 118.66667 | 33118 ft | 530 kts | 150° |
| 2026-05-07 07:23 | 33.14832 | 118.71673 | 33126 ft | 527 kts | 150° |
| 2026-05-07 07:24 | 33.08817 | 118.76684 | 33130 ft | 526 kts | 150° |
| 2026-05-07 07:24 | 33.02849 | 118.81639 | 33128 ft | 526 kts | 150° |
| 2026-05-07 07:25 | 32.93850 | 118.89078 | 33114 ft | 526 kts | 150° |
| 2026-05-07 07:26 | 32.87836 | 118.94038 | 33114 ft | 526 kts | 150° |
| 2026-05-07 07:26 | 32.81857 | 118.98972 | 32473 ft | 519 kts | 150° |
| 2026-05-07 07:26 | 32.78888 | 119.01437 | 31620 ft | 520 kts | 150° |
| 2026-05-07 07:27 | 32.75906 | 119.03916 | 30706 ft | 522 kts | 150° |
| 2026-05-07 07:27 | 32.72914 | 119.06400 | 29862 ft | 526 kts | 150° |
| 2026-05-07 07:27 | 32.69937 | 119.08868 | 29297 ft | 531 kts | 150° |
| 2026-05-07 07:27 | 32.66898 | 119.11385 | 29126 ft | 531 kts | 150° |
| 2026-05-07 07:28 | 32.63872 | 119.13892 | 29086 ft | 529 kts | 150° |
| 2026-05-07 07:28 | 32.57844 | 119.18879 | 29103 ft | 527 kts | 150° |
| 2026-05-07 07:29 | 32.51805 | 119.23861 | 29088 ft | 527 kts | 150° |
| 2026-05-07 07:29 | 32.45812 | 119.28795 | 29085 ft | 528 kts | 150° |
| 2026-05-07 07:30 | 32.39792 | 119.33746 | 28740 ft | 522 kts | 150° |
| 2026-05-07 07:30 | 32.36819 | 119.36191 | 27990 ft | 518 kts | 150° |
| 2026-05-07 07:30 | 32.33867 | 119.38616 | 27246 ft | 514 kts | 150° |
| 2026-05-07 07:30 | 32.30927 | 119.41028 | 26582 ft | 510 kts | 150° |
| 2026-05-07 07:31 | 32.28021 | 119.43410 | 25930 ft | 505 kts | 150° |
| 2026-05-07 07:31 | 32.25147 | 119.45763 | 25294 ft | 500 kts | 150° |
| 2026-05-07 07:31 | 32.22331 | 119.48067 | 24668 ft | 496 kts | 150° |
| 2026-05-07 07:31 | 32.19504 | 119.50377 | 24042 ft | 492 kts | 150° |
| 2026-05-07 07:32 | 32.16685 | 119.52679 | 23414 ft | 488 kts | 150° |
| 2026-05-07 07:32 | 32.13900 | 119.54950 | 22664 ft | 484 kts | 150° |
| 2026-05-07 07:32 | 32.11175 | 119.57172 | 21991 ft | 479 kts | 150° |
| 2026-05-07 07:32 | 32.08446 | 119.59395 | 21324 ft | 474 kts | 150° |
| 2026-05-07 07:33 | 32.05740 | 119.61598 | 20860 ft | 468 kts | 150° |
| 2026-05-07 07:33 | 32.03053 | 119.63783 | 20648 ft | 469 kts | 149° |
| 2026-05-07 07:33 | 32.00395 | 119.65940 | 20635 ft | 469 kts | 149° |
| 2026-05-07 07:33 | 31.97709 | 119.68120 | 20645 ft | 468 kts | 149° |
| 2026-05-07 07:34 | 31.95113 | 119.70469 | 20650 ft | 472 kts | 141° |
| 2026-05-07 07:34 | 31.92913 | 119.73358 | 20639 ft | 477 kts | 130° |
| 2026-05-07 07:34 | 31.90983 | 119.76554 | 20630 ft | 479 kts | 127° |
| 2026-05-07 07:34 | 31.89104 | 119.79803 | 20635 ft | 479 kts | 127° |
| 2026-05-07 07:35 | 31.87235 | 119.83055 | 20568 ft | 474 kts | 127° |
| 2026-05-07 07:35 | 31.85421 | 119.86213 | 19959 ft | 468 kts | 127° |
| 2026-05-07 07:35 | 31.83595 | 119.89385 | 19207 ft | 468 kts | 127° |
| 2026-05-07 07:35 | 31.81776 | 119.92542 | 18582 ft | 464 kts | 126° |
| 2026-05-07 07:36 | 31.79969 | 119.95675 | 17926 ft | 459 kts | 126° |
| 2026-05-07 07:36 | 31.78782 | 119.97731 | 17489 ft | 455 kts | 126° |
| 2026-05-07 07:36 | 31.76443 | 120.01781 | 16805 ft | 448 kts | 126° |
| 2026-05-07 07:36 | 31.74690 | 120.04813 | 16637 ft | 447 kts | 126° |
| 2026-05-07 07:37 | 31.73527 | 120.06822 | 16609 ft | 447 kts | 126° |
| 2026-05-07 07:37 | 31.71778 | 120.09843 | 16613 ft | 446 kts | 126° |
| 2026-05-07 07:37 | 31.70025 | 120.12868 | 16613 ft | 446 kts | 126° |
| 2026-05-07 07:37 | 31.68294 | 120.15853 | 16614 ft | 447 kts | 127° |
| 2026-05-07 07:38 | 31.66541 | 120.18873 | 16609 ft | 447 kts | 127° |
| 2026-05-07 07:38 | 31.64788 | 120.21891 | 16598 ft | 447 kts | 127° |
| 2026-05-07 07:38 | 31.62463 | 120.25894 | 16576 ft | 445 kts | 127° |
| 2026-05-07 07:38 | 31.61293 | 120.27906 | 16314 ft | 438 kts | 127° |
| 2026-05-07 07:39 | 31.59602 | 120.30873 | 15538 ft | 438 kts | 124° |
| 2026-05-07 07:39 | 31.58311 | 120.34062 | 15012 ft | 438 kts | 112° |
| 2026-05-07 07:39 | 31.57280 | 120.37436 | 14757 ft | 438 kts | 111° |
| 2026-05-07 07:39 | 31.56288 | 120.40805 | 14593 ft | 436 kts | 111° |
| 2026-05-07 07:40 | 31.55299 | 120.44159 | 14366 ft | 433 kts | 111° |
| 2026-05-07 07:40 | 31.54312 | 120.47487 | 14137 ft | 431 kts | 111° |
| 2026-05-07 07:40 | 31.53326 | 120.50799 | 13853 ft | 428 kts | 111° |
| 2026-05-07 07:40 | 31.52355 | 120.54054 | 13174 ft | 425 kts | 111° |
| 2026-05-07 07:41 | 31.51385 | 120.57300 | 12584 ft | 417 kts | 111° |
| 2026-05-07 07:41 | 31.50427 | 120.60498 | 11947 ft | 411 kts | 111° |
| 2026-05-07 07:41 | 31.49488 | 120.63630 | 11459 ft | 402 kts | 110° |
| 2026-05-07 07:41 | 31.48589 | 120.66625 | 11233 ft | 387 kts | 110° |
| 2026-05-07 07:42 | 31.47714 | 120.69542 | 11014 ft | 372 kts | 110° |
| 2026-05-07 07:42 | 31.46874 | 120.72341 | 10821 ft | 357 kts | 110° |
| 2026-05-07 07:42 | 31.46064 | 120.75036 | 10633 ft | 344 kts | 110° |
| 2026-05-07 07:42 | 31.45283 | 120.77630 | 10462 ft | 331 kts | 110° |
| 2026-05-07 07:43 | 31.44531 | 120.80125 | 10298 ft | 318 kts | 110° |
| 2026-05-07 07:43 | 31.43805 | 120.82530 | 10040 ft | 310 kts | 110° |
| 2026-05-07 07:43 | 31.43087 | 120.84905 | 9676 ft | 306 kts | 109° |
| 2026-05-07 07:43 | 31.42387 | 120.87222 | 9287 ft | 303 kts | 109° |
| 2026-05-07 07:44 | 31.41686 | 120.89542 | 8966 ft | 301 kts | 109° |
| 2026-05-07 07:44 | 31.40962 | 120.91847 | 8851 ft | 301 kts | 113° |
| 2026-05-07 07:44 | 31.39894 | 120.93926 | 8472 ft | 298 kts | 131° |
| 2026-05-07 07:44 | 31.38349 | 120.95528 | 8027 ft | 296 kts | 145° |
| 2026-05-07 07:45 | 31.36659 | 120.96891 | 7604 ft | 294 kts | 148° |
| 2026-05-07 07:45 | 31.34951 | 120.98206 | 7200 ft | 292 kts | 148° |
| 2026-05-07 07:45 | 31.33251 | 120.99503 | 6801 ft | 290 kts | 148° |
| 2026-05-07 07:45 | 31.31582 | 121.00772 | 6432 ft | 288 kts | 148° |
| 2026-05-07 07:46 | 31.29901 | 121.02047 | 6038 ft | 287 kts | 148° |
| 2026-05-07 07:46 | 31.28220 | 121.03321 | 5905 ft | 288 kts | 148° |
| 2026-05-07 07:46 | 31.26537 | 121.04597 | 5894 ft | 288 kts | 148° |
| 2026-05-07 07:46 | 31.24854 | 121.05871 | 5894 ft | 287 kts | 148° |
| 2026-05-07 07:47 | 31.23179 | 121.07139 | 5893 ft | 286 kts | 147° |
| 2026-05-07 07:47 | 31.21523 | 121.08393 | 5891 ft | 287 kts | 148° |
| 2026-05-07 07:47 | 31.19838 | 121.09667 | 5890 ft | 288 kts | 147° |
| 2026-05-07 07:47 | 31.18161 | 121.10936 | 5890 ft | 288 kts | 147° |
| 2026-05-07 07:48 | 31.16482 | 121.12205 | 5888 ft | 286 kts | 147° |
| 2026-05-07 07:48 | 31.14816 | 121.13463 | 5655 ft | 284 kts | 147° |
| 2026-05-07 07:48 | 31.13162 | 121.14713 | 5257 ft | 283 kts | 147° |
| 2026-05-07 07:48 | 31.11507 | 121.15963 | 4827 ft | 282 kts | 147° |
| 2026-05-07 07:49 | 31.09894 | 121.17179 | 4609 ft | 274 kts | 147° |
| 2026-05-07 07:49 | 31.08321 | 121.18366 | 4477 ft | 262 kts | 148° |
| 2026-05-07 07:49 | 31.06820 | 121.19497 | 4373 ft | 251 kts | 147° |
| 2026-05-07 07:49 | 31.05379 | 121.20585 | 4204 ft | 242 kts | 148° |
| 2026-05-07 07:50 | 31.04000 | 121.21624 | 4012 ft | 237 kts | 147° |
| 2026-05-07 07:50 | 31.02614 | 121.22664 | 3702 ft | 236 kts | 149° |
| 2026-05-07 07:50 | 31.01356 | 121.23858 | 3372 ft | 234 kts | 124° |
| 2026-05-07 07:50 | 31.00899 | 121.25638 | 3048 ft | 231 kts | 87° |
| 2026-05-07 07:51 | 31.01040 | 121.27466 | 2958 ft | 220 kts | 81° |
| 2026-05-07 07:51 | 31.01208 | 121.29179 | 2911 ft | 206 kts | 82° |
| 2026-05-07 07:51 | 31.01339 | 121.30817 | 2737 ft | 199 kts | 83° |
| 2026-05-07 07:51 | 31.01477 | 121.32390 | 2575 ft | 196 kts | 78° |
| 2026-05-07 07:52 | 31.02160 | 121.33712 | 2445 ft | 190 kts | 32° |
| 2026-05-07 07:52 | 31.03361 | 121.34259 | 2337 ft | 186 kts | 10° |
| 2026-05-07 07:52 | 31.04643 | 121.34449 | 2216 ft | 186 kts | 355° |
| 2026-05-07 07:52 | 31.05868 | 121.34344 | 2121 ft | 177 kts | 355° |
| 2026-05-07 07:53 | 31.07046 | 121.34290 | 2061 ft | 160 kts | 355° |
| 2026-05-07 07:53 | 31.08124 | 121.34245 | 1973 ft | 152 kts | 355° |
| 2026-05-07 07:53 | 31.09160 | 121.34203 | 1768 ft | 145 kts | 356° |
| 2026-05-07 07:53 | 31.10142 | 121.34152 | 1575 ft | 136 kts | 355° |
| 2026-05-07 07:54 | 31.11071 | 121.34101 | 1403 ft | 133 kts | 355° |
| 2026-05-07 07:54 | 31.11984 | 121.34052 | 1233 ft | 133 kts | 355° |
| 2026-05-07 07:54 | 31.12913 | 121.34000 | 1059 ft | 133 kts | 355° |
| 2026-05-07 07:54 | 31.13833 | 121.33949 | 900 ft | 132 kts | 355° |
| 2026-05-07 07:55 | 31.14755 | 121.33901 | 730 ft | 131 kts | 355° |
| 2026-05-07 07:55 | 31.15636 | 121.33853 | 578 ft | 124 kts | 353° |
| 2026-05-07 07:55 | 31.16496 | 121.33803 | 405 ft | 123 kts | 353° |
| 2026-05-07 07:55 | 31.17357 | 121.33756 | 237 ft | 125 kts | 355° |
| 2026-05-07 07:56 | 31.18239 | 121.33710 | 91 ft | 128 kts | 356° |
| 2026-05-07 07:56 | 31.19104 | 121.33666 | 29 ft | 111 kts | 358° |
| 2026-05-07 07:56 | 31.19717 | 121.33632 | 29 ft | 67 kts | 357° |
| 2026-05-07 07:56 | 31.20068 | 121.33613 | 27 ft | 39 kts | 357° |
| 2026-05-07 07:57 | 31.20280 | 121.33574 | 25 ft | 20 kts | 339° |
| 2026-05-07 07:57 | 31.20345 | 121.33527 | 29 ft | 11 kts | 328° |
| 2026-05-07 07:57 | 31.20415 | 121.33477 | 31 ft | 13 kts | 329° |
| 2026-05-07 07:57 | 31.20497 | 121.33418 | 31 ft | 14 kts | 323° |
| 2026-05-07 07:58 | 31.20519 | 121.33317 | 30 ft | 12 kts | 265° |
| 2026-05-07 07:58 | 31.20516 | 121.33209 | 26 ft | 15 kts | 268° |
| 2026-05-07 07:58 | 31.20511 | 121.33077 | 26 ft | 18 kts | 267° |
| 2026-05-07 07:58 | 31.20483 | 121.32947 | 27 ft | 16 kts | 217° |
| 2026-05-07 07:59 | 31.20383 | 121.32941 | 29 ft | 16 kts | 176° |
| 2026-05-07 07:59 | 31.20265 | 121.32948 | 28 ft | 18 kts | 178° |
| 2026-05-07 07:59 | 31.20132 | 121.32954 | 28 ft | 20 kts | 178° |
| 2026-05-07 07:59 | 31.19981 | 121.32961 | 28 ft | 23 kts | 177° |
| 2026-05-07 08:00 | 31.19816 | 121.32971 | 28 ft | 25 kts | 177° |
| 2026-05-07 08:00 | 31.19680 | 121.32968 | 27 ft | 14 kts | 205° |
| 2026-05-07 08:00 | 31.19653 | 121.32882 | 27 ft | 13 kts | 266° |
| 2026-05-07 08:00 | 31.19649 | 121.32772 | 25 ft | 14 kts | 267° |
| 2026-05-07 08:01 | 31.19647 | 121.32726 | 25 ft | 1 kts | 267° |
| 2026-05-07 08:01 | 31.19666 | 121.32675 | 28 ft | 10 kts | 306° |
| 2026-05-07 08:01 | 31.19713 | 121.32606 | 28 ft | 12 kts | 309° |
| 2026-05-07 08:01 | 31.19750 | 121.32553 | 28 ft | 2 kts | 309° |
| 2026-05-07 08:02 | 31.19760 | 121.32539 | 29 ft | 1 kts | 309° |
| 2026-05-07 08:02 | 31.19762 | 121.32537 | 29 ft | 0 kts | 309° |